sensor_id;sensor_type;location;lat;lon;timestamp;P1;durP1;ratioP1;P2;durP2;ratioP2
32639;SDS011;19049;52.524;11.468;2023-08-30T00:00:09;2.03;;;0.63;;
32639;SDS011;19049;52.524;11.468;2023-08-30T00:02:35;0.40;;;0.40;;
32639;SDS011;19049;52.524;11.468;2023-08-30T00:05:04;0.47;;;0.47;;
32639;SDS011;19049;52.524;11.468;2023-08-30T00:07:29;0.40;;;0.40;;
32639;SDS011;19049;52.524;11.468;2023-08-30T00:09:56;0.50;;;0.50;;
32639;SDS011;19049;52.524;11.468;2023-08-30T00:12:23;0.43;;;0.43;;
32639;SDS011;19049;52.524;11.468;2023-08-30T00:14:49;0.33;;;0.33;;
32639;SDS011;19049;52.524;11.468;2023-08-30T00:17:15;0.43;;;0.37;;
32639;SDS011;19049;52.524;11.468;2023-08-30T00:19:41;0.30;;;0.30;;
32639;SDS011;19049;52.524;11.468;2023-08-30T00:22:07;0.47;;;0.47;;
32639;SDS011;19049;52.524;11.468;2023-08-30T00:24:33;0.50;;;0.50;;
32639;SDS011;19049;52.524;11.468;2023-08-30T00:27:00;0.50;;;0.50;;
32639;SDS011;19049;52.524;11.468;2023-08-30T00:29:27;0.67;;;0.67;;
32639;SDS011;19049;52.524;11.468;2023-08-30T00:31:53;0.80;;;0.80;;
32639;SDS011;19049;52.524;11.468;2023-08-30T00:34:18;2.00;;;0.90;;
32639;SDS011;19049;52.524;11.468;2023-08-30T00:36:44;0.67;;;0.67;;
32639;SDS011;19049;52.524;11.468;2023-08-30T00:39:10;1.03;;;0.90;;
32639;SDS011;19049;52.524;11.468;2023-08-30T00:41:35;0.70;;;0.70;;
32639;SDS011;19049;52.524;11.468;2023-08-30T00:44:01;0.70;;;0.70;;
32639;SDS011;19049;52.524;11.468;2023-08-30T00:46:27;0.80;;;0.80;;
32639;SDS011;19049;52.524;11.468;2023-08-30T00:48:53;0.80;;;0.70;;
32639;SDS011;19049;52.524;11.468;2023-08-30T00:51:19;0.90;;;0.80;;
32639;SDS011;19049;52.524;11.468;2023-08-30T00:53:45;1.50;;;0.70;;
32639;SDS011;19049;52.524;11.468;2023-08-30T00:56:11;0.77;;;0.70;;
32639;SDS011;19049;52.524;11.468;2023-08-30T00:58:37;0.70;;;0.70;;
32639;SDS011;19049;52.524;11.468;2023-08-30T01:01:03;0.90;;;0.90;;
32639;SDS011;19049;52.524;11.468;2023-08-30T01:03:33;0.90;;;0.70;;
32639;SDS011;19049;52.524;11.468;2023-08-30T01:05:59;0.83;;;0.73;;
32639;SDS011;19049;52.524;11.468;2023-08-30T01:08:25;1.47;;;0.70;;
32639;SDS011;19049;52.524;11.468;2023-08-30T01:14:02;0.50;;;0.50;;
32639;SDS011;19049;52.524;11.468;2023-08-30T01:16:28;0.43;;;0.43;;
32639;SDS011;19049;52.524;11.468;2023-08-30T01:18:56;6.80;;;0.60;;
32639;SDS011;19049;52.524;11.468;2023-08-30T01:21:29;2.30;;;0.50;;
32639;SDS011;19049;52.524;11.468;2023-08-30T01:24:02;0.60;;;0.40;;
32639;SDS011;19049;52.524;11.468;2023-08-30T01:26:42;0.50;;;0.50;;
32639;SDS011;19049;52.524;11.468;2023-08-30T01:29:16;0.43;;;0.43;;
32639;SDS011;19049;52.524;11.468;2023-08-30T01:31:45;0.50;;;0.50;;
32639;SDS011;19049;52.524;11.468;2023-08-30T01:34:12;0.60;;;0.60;;
32639;SDS011;19049;52.524;11.468;2023-08-30T01:36:40;0.70;;;0.70;;
32639;SDS011;19049;52.524;11.468;2023-08-30T01:39:08;0.90;;;0.77;;
32639;SDS011;19049;52.524;11.468;2023-08-30T01:41:36;0.50;;;0.50;;
32639;SDS011;19049;52.524;11.468;2023-08-30T01:44:03;0.87;;;0.70;;
32639;SDS011;19049;52.524;11.468;2023-08-30T01:46:33;0.93;;;0.80;;
32639;SDS011;19049;52.524;11.468;2023-08-30T01:49:01;1.30;;;0.60;;
32639;SDS011;19049;52.524;11.468;2023-08-30T01:51:28;0.70;;;0.70;;
32639;SDS011;19049;52.524;11.468;2023-08-30T01:53:54;1.00;;;0.80;;
32639;SDS011;19049;52.524;11.468;2023-08-30T01:56:22;0.90;;;0.80;;
32639;SDS011;19049;52.524;11.468;2023-08-30T01:58:48;0.87;;;0.87;;
32639;SDS011;19049;52.524;11.468;2023-08-30T02:01:13;1.00;;;0.80;;
32639;SDS011;19049;52.524;11.468;2023-08-30T02:03:39;0.77;;;0.77;;
32639;SDS011;19049;52.524;11.468;2023-08-30T02:11:17;0.90;;;0.90;;
32639;SDS011;19049;52.524;11.468;2023-08-30T02:13:51;1.17;;;0.73;;
32639;SDS011;19049;52.524;11.468;2023-08-30T02:16:19;1.67;;;1.00;;
32639;SDS011;19049;52.524;11.468;2023-08-30T02:18:47;1.13;;;0.90;;
32639;SDS011;19049;52.524;11.468;2023-08-30T02:21:15;1.07;;;0.67;;
32639;SDS011;19049;52.524;11.468;2023-08-30T02:23:41;1.73;;;1.00;;
32639;SDS011;19049;52.524;11.468;2023-08-30T02:26:06;1.10;;;1.00;;
32639;SDS011;19049;52.524;11.468;2023-08-30T02:28:32;0.93;;;0.90;;
32639;SDS011;19049;52.524;11.468;2023-08-30T02:30:58;2.33;;;1.10;;
32639;SDS011;19049;52.524;11.468;2023-08-30T02:33:24;1.40;;;1.30;;
32639;SDS011;19049;52.524;11.468;2023-08-30T02:35:50;1.40;;;1.20;;
32639;SDS011;19049;52.524;11.468;2023-08-30T02:38:15;1.40;;;1.30;;
32639;SDS011;19049;52.524;11.468;2023-08-30T02:40:42;2.03;;;1.10;;
32639;SDS011;19049;52.524;11.468;2023-08-30T02:43:08;0.90;;;0.80;;
32639;SDS011;19049;52.524;11.468;2023-08-30T02:45:34;0.73;;;0.73;;
32639;SDS011;19049;52.524;11.468;2023-08-30T02:48:00;0.53;;;0.53;;
32639;SDS011;19049;52.524;11.468;2023-08-30T02:50:25;0.80;;;0.57;;
32639;SDS011;19049;52.524;11.468;2023-08-30T02:52:51;0.43;;;0.43;;
32639;SDS011;19049;52.524;11.468;2023-08-30T02:55:17;0.70;;;0.70;;
32639;SDS011;19049;52.524;11.468;2023-08-30T02:57:43;0.60;;;0.60;;
32639;SDS011;19049;52.524;11.468;2023-08-30T03:00:09;0.80;;;0.80;;
32639;SDS011;19049;52.524;11.468;2023-08-30T03:02:35;1.67;;;0.83;;
32639;SDS011;19049;52.524;11.468;2023-08-30T03:05:01;0.60;;;0.60;;
32639;SDS011;19049;52.524;11.468;2023-08-30T03:07:28;0.87;;;0.80;;
32639;SDS011;19049;52.524;11.468;2023-08-30T03:09:54;0.80;;;0.73;;
32639;SDS011;19049;52.524;11.468;2023-08-30T03:12:20;2.90;;;1.00;;
32639;SDS011;19049;52.524;11.468;2023-08-30T03:14:46;0.90;;;0.80;;
32639;SDS011;19049;52.524;11.468;2023-08-30T03:17:12;0.90;;;0.90;;
32639;SDS011;19049;52.524;11.468;2023-08-30T03:19:38;1.00;;;0.90;;
32639;SDS011;19049;52.524;11.468;2023-08-30T03:22:03;0.83;;;0.83;;
32639;SDS011;19049;52.524;11.468;2023-08-30T03:24:29;0.97;;;0.73;;
32639;SDS011;19049;52.524;11.468;2023-08-30T03:26:55;1.37;;;0.90;;
32639;SDS011;19049;52.524;11.468;2023-08-30T03:29:21;2.63;;;0.87;;
32639;SDS011;19049;52.524;11.468;2023-08-30T03:31:47;0.80;;;0.80;;
32639;SDS011;19049;52.524;11.468;2023-08-30T03:34:12;1.00;;;0.83;;
32639;SDS011;19049;52.524;11.468;2023-08-30T03:36:38;1.07;;;0.87;;
32639;SDS011;19049;52.524;11.468;2023-08-30T03:39:07;1.00;;;0.90;;
32639;SDS011;19049;52.524;11.468;2023-08-30T03:41:33;1.50;;;0.97;;
32639;SDS011;19049;52.524;11.468;2023-08-30T03:43:59;0.80;;;0.80;;
32639;SDS011;19049;52.524;11.468;2023-08-30T03:46:24;0.80;;;0.80;;
32639;SDS011;19049;52.524;11.468;2023-08-30T03:48:50;0.70;;;0.70;;
32639;SDS011;19049;52.524;11.468;2023-08-30T03:51:17;0.70;;;0.70;;
32639;SDS011;19049;52.524;11.468;2023-08-30T03:53:42;1.63;;;0.80;;
32639;SDS011;19049;52.524;11.468;2023-08-30T03:56:08;1.07;;;0.80;;
32639;SDS011;19049;52.524;11.468;2023-08-30T03:58:34;0.87;;;0.70;;
32639;SDS011;19049;52.524;11.468;2023-08-30T04:01:02;0.80;;;0.80;;
32639;SDS011;19049;52.524;11.468;2023-08-30T04:03:28;0.63;;;0.53;;
32639;SDS011;19049;52.524;11.468;2023-08-30T04:05:57;0.70;;;0.70;;
32639;SDS011;19049;52.524;11.468;2023-08-30T04:08:22;2.10;;;0.93;;
32639;SDS011;19049;52.524;11.468;2023-08-30T04:10:51;0.60;;;0.60;;
32639;SDS011;19049;52.524;11.468;2023-08-30T04:13:17;0.90;;;0.70;;
32639;SDS011;19049;52.524;11.468;2023-08-30T04:15:43;0.80;;;0.80;;
32639;SDS011;19049;52.524;11.468;2023-08-30T04:18:09;1.27;;;0.70;;
32639;SDS011;19049;52.524;11.468;2023-08-30T04:20:35;0.80;;;0.77;;
32639;SDS011;19049;52.524;11.468;2023-08-30T04:23:01;2.03;;;0.80;;
32639;SDS011;19049;52.524;11.468;2023-08-30T04:25:30;0.80;;;0.77;;
32639;SDS011;19049;52.524;11.468;2023-08-30T04:27:56;0.50;;;0.50;;
32639;SDS011;19049;52.524;11.468;2023-08-30T04:30:22;0.60;;;0.60;;
32639;SDS011;19049;52.524;11.468;2023-08-30T04:32:48;0.60;;;0.57;;
32639;SDS011;19049;52.524;11.468;2023-08-30T04:35:14;0.50;;;0.50;;
32639;SDS011;19049;52.524;11.468;2023-08-30T04:37:40;0.90;;;0.70;;
32639;SDS011;19049;52.524;11.468;2023-08-30T04:40:07;1.20;;;0.87;;
32639;SDS011;19049;52.524;11.468;2023-08-30T04:42:37;1.30;;;1.20;;
32639;SDS011;19049;52.524;11.468;2023-08-30T04:45:05;0.80;;;0.80;;
32639;SDS011;19049;52.524;11.468;2023-08-30T04:47:31;1.20;;;0.97;;
32639;SDS011;19049;52.524;11.468;2023-08-30T04:49:57;1.10;;;1.00;;
32639;SDS011;19049;52.524;11.468;2023-08-30T04:52:23;1.20;;;0.97;;
32639;SDS011;19049;52.524;11.468;2023-08-30T04:54:49;1.40;;;1.30;;
32639;SDS011;19049;52.524;11.468;2023-08-30T04:57:16;1.07;;;1.03;;
32639;SDS011;19049;52.524;11.468;2023-08-30T04:59:42;1.07;;;0.97;;
32639;SDS011;19049;52.524;11.468;2023-08-30T05:02:08;1.30;;;1.10;;
32639;SDS011;19049;52.524;11.468;2023-08-30T05:04:34;1.20;;;1.10;;
32639;SDS011;19049;52.524;11.468;2023-08-30T05:07:01;1.33;;;1.23;;
32639;SDS011;19049;52.524;11.468;2023-08-30T05:09:27;1.40;;;1.13;;
32639;SDS011;19049;52.524;11.468;2023-08-30T05:11:54;1.47;;;1.00;;
32639;SDS011;19049;52.524;11.468;2023-08-30T05:14:20;1.47;;;1.23;;
32639;SDS011;19049;52.524;11.468;2023-08-30T05:16:46;0.90;;;0.90;;
32639;SDS011;19049;52.524;11.468;2023-08-30T05:19:12;1.30;;;1.20;;
32639;SDS011;19049;52.524;11.468;2023-08-30T05:21:37;1.13;;;1.03;;
32639;SDS011;19049;52.524;11.468;2023-08-30T05:24:03;1.10;;;1.00;;
32639;SDS011;19049;52.524;11.468;2023-08-30T05:26:32;3.30;;;1.10;;
32639;SDS011;19049;52.524;11.468;2023-08-30T05:28:57;1.03;;;1.03;;
32639;SDS011;19049;52.524;11.468;2023-08-30T05:31:23;1.03;;;1.00;;
32639;SDS011;19049;52.524;11.468;2023-08-30T05:33:49;0.90;;;0.90;;
32639;SDS011;19049;52.524;11.468;2023-08-30T05:36:15;1.50;;;1.20;;
32639;SDS011;19049;52.524;11.468;2023-08-30T05:38:41;1.40;;;1.20;;
32639;SDS011;19049;52.524;11.468;2023-08-30T05:41:07;1.40;;;1.27;;
32639;SDS011;19049;52.524;11.468;2023-08-30T05:43:33;1.63;;;1.53;;
32639;SDS011;19049;52.524;11.468;2023-08-30T05:45:59;1.57;;;1.47;;
32639;SDS011;19049;52.524;11.468;2023-08-30T05:48:27;1.83;;;1.73;;
32639;SDS011;19049;52.524;11.468;2023-08-30T05:50:53;2.00;;;1.80;;
32639;SDS011;19049;52.524;11.468;2023-08-30T05:53:19;1.67;;;1.53;;
32639;SDS011;19049;52.524;11.468;2023-08-30T05:55:45;1.47;;;1.37;;
32639;SDS011;19049;52.524;11.468;2023-08-30T05:58:11;1.50;;;1.40;;
32639;SDS011;19049;52.524;11.468;2023-08-30T06:00:39;1.70;;;1.60;;
32639;SDS011;19049;52.524;11.468;2023-08-30T06:03:04;2.33;;;1.90;;
32639;SDS011;19049;52.524;11.468;2023-08-30T06:05:30;1.83;;;1.73;;
32639;SDS011;19049;52.524;11.468;2023-08-30T06:07:56;1.90;;;1.70;;
32639;SDS011;19049;52.524;11.468;2023-08-30T06:10:23;2.40;;;2.20;;
32639;SDS011;19049;52.524;11.468;2023-08-30T06:12:49;2.80;;;2.50;;
32639;SDS011;19049;52.524;11.468;2023-08-30T06:15:15;2.80;;;2.60;;
32639;SDS011;19049;52.524;11.468;2023-08-30T06:17:41;3.27;;;2.97;;
32639;SDS011;19049;52.524;11.468;2023-08-30T06:20:07;3.43;;;3.13;;
32639;SDS011;19049;52.524;11.468;2023-08-30T06:22:33;2.87;;;2.67;;
32639;SDS011;19049;52.524;11.468;2023-08-30T06:24:58;3.47;;;2.70;;
32639;SDS011;19049;52.524;11.468;2023-08-30T06:27:24;3.57;;;3.07;;
32639;SDS011;19049;52.524;11.468;2023-08-30T06:29:50;3.20;;;2.90;;
32639;SDS011;19049;52.524;11.468;2023-08-30T06:32:16;4.93;;;3.17;;
32639;SDS011;19049;52.524;11.468;2023-08-30T06:34:42;3.17;;;2.87;;
32639;SDS011;19049;52.524;11.468;2023-08-30T06:37:08;3.13;;;2.73;;
32639;SDS011;19049;52.524;11.468;2023-08-30T06:39:34;3.07;;;2.83;;
32639;SDS011;19049;52.524;11.468;2023-08-30T06:42:01;3.47;;;3.17;;
32639;SDS011;19049;52.524;11.468;2023-08-30T06:44:28;3.20;;;2.90;;
32639;SDS011;19049;52.524;11.468;2023-08-30T06:46:55;3.57;;;3.17;;
32639;SDS011;19049;52.524;11.468;2023-08-30T06:49:21;3.40;;;2.80;;
32639;SDS011;19049;52.524;11.468;2023-08-30T06:51:46;3.23;;;2.93;;
32639;SDS011;19049;52.524;11.468;2023-08-30T06:54:12;3.17;;;2.90;;
32639;SDS011;19049;52.524;11.468;2023-08-30T06:56:38;3.70;;;3.13;;
32639;SDS011;19049;52.524;11.468;2023-08-30T06:59:03;5.63;;;3.60;;
32639;SDS011;19049;52.524;11.468;2023-08-30T07:01:29;3.53;;;3.23;;
32639;SDS011;19049;52.524;11.468;2023-08-30T07:03:55;3.60;;;3.30;;
32639;SDS011;19049;52.524;11.468;2023-08-30T07:06:20;3.53;;;3.23;;
32639;SDS011;19049;52.524;11.468;2023-08-30T07:08:46;4.03;;;3.70;;
32639;SDS011;19049;52.524;11.468;2023-08-30T07:11:12;3.60;;;3.30;;
32639;SDS011;19049;52.524;11.468;2023-08-30T07:13:38;4.10;;;3.70;;
32639;SDS011;19049;52.524;11.468;2023-08-30T07:16:03;4.33;;;3.93;;
32639;SDS011;19049;52.524;11.468;2023-08-30T07:18:29;3.73;;;3.40;;
32639;SDS011;19049;52.524;11.468;2023-08-30T07:20:55;3.70;;;3.40;;
32639;SDS011;19049;52.524;11.468;2023-08-30T07:23:20;5.70;;;3.90;;
32639;SDS011;19049;52.524;11.468;2023-08-30T07:25:46;3.60;;;3.30;;
32639;SDS011;19049;52.524;11.468;2023-08-30T07:28:12;4.13;;;3.83;;
32639;SDS011;19049;52.524;11.468;2023-08-30T07:30:38;5.17;;;4.10;;
32639;SDS011;19049;52.524;11.468;2023-08-30T07:33:04;4.43;;;3.83;;
32639;SDS011;19049;52.524;11.468;2023-08-30T07:35:30;3.63;;;3.33;;
32639;SDS011;19049;52.524;11.468;2023-08-30T07:37:57;3.27;;;3.00;;
32639;SDS011;19049;52.524;11.468;2023-08-30T07:40:23;3.73;;;3.07;;
32639;SDS011;19049;52.524;11.468;2023-08-30T07:42:51;3.77;;;3.47;;
32639;SDS011;19049;52.524;11.468;2023-08-30T07:45:18;5.47;;;3.10;;
32639;SDS011;19049;52.524;11.468;2023-08-30T07:47:43;4.03;;;3.60;;
32639;SDS011;19049;52.524;11.468;2023-08-30T07:50:09;3.20;;;2.90;;
32639;SDS011;19049;52.524;11.468;2023-08-30T07:52:35;3.03;;;2.83;;
32639;SDS011;19049;52.524;11.468;2023-08-30T07:55:01;3.30;;;2.60;;
32639;SDS011;19049;52.524;11.468;2023-08-30T07:57:27;2.63;;;2.43;;
32639;SDS011;19049;52.524;11.468;2023-08-30T07:59:53;2.80;;;2.60;;
32639;SDS011;19049;52.524;11.468;2023-08-30T08:02:20;2.87;;;2.67;;
32639;SDS011;19049;52.524;11.468;2023-08-30T08:04:46;2.40;;;2.20;;
32639;SDS011;19049;52.524;11.468;2023-08-30T08:07:12;2.23;;;2.13;;
32639;SDS011;19049;52.524;11.468;2023-08-30T08:09:39;2.73;;;2.53;;
32639;SDS011;19049;52.524;11.468;2023-08-30T08:12:05;2.43;;;2.23;;
32639;SDS011;19049;52.524;11.468;2023-08-30T08:14:31;2.40;;;2.20;;
32639;SDS011;19049;52.524;11.468;2023-08-30T08:16:56;2.63;;;2.40;;
32639;SDS011;19049;52.524;11.468;2023-08-30T08:19:22;2.57;;;2.13;;
32639;SDS011;19049;52.524;11.468;2023-08-30T08:21:48;2.00;;;1.77;;
32639;SDS011;19049;52.524;11.468;2023-08-30T08:24:14;2.77;;;1.60;;
32639;SDS011;19049;52.524;11.468;2023-08-30T08:26:40;4.07;;;2.20;;
32639;SDS011;19049;52.524;11.468;2023-08-30T08:29:06;2.30;;;1.90;;
32639;SDS011;19049;52.524;11.468;2023-08-30T08:31:32;2.47;;;2.27;;
32639;SDS011;19049;52.524;11.468;2023-08-30T08:34:08;1.83;;;1.73;;
32639;SDS011;19049;52.524;11.468;2023-08-30T08:36:35;2.33;;;1.77;;
32639;SDS011;19049;52.524;11.468;2023-08-30T08:39:05;2.20;;;2.00;;
32639;SDS011;19049;52.524;11.468;2023-08-30T08:41:49;2.07;;;1.80;;
32639;SDS011;19049;52.524;11.468;2023-08-30T08:44:20;2.40;;;2.20;;
32639;SDS011;19049;52.524;11.468;2023-08-30T08:46:47;2.83;;;2.50;;
32639;SDS011;19049;52.524;11.468;2023-08-30T08:49:15;2.00;;;1.77;;
32639;SDS011;19049;52.524;11.468;2023-08-30T08:51:41;2.17;;;1.80;;
32639;SDS011;19049;52.524;11.468;2023-08-30T08:54:09;2.87;;;2.03;;
32639;SDS011;19049;52.524;11.468;2023-08-30T08:56:35;2.50;;;2.30;;
32639;SDS011;19049;52.524;11.468;2023-08-30T08:59:02;2.30;;;2.10;;
32639;SDS011;19049;52.524;11.468;2023-08-30T09:01:29;2.37;;;1.70;;
32639;SDS011;19049;52.524;11.468;2023-08-30T09:03:55;1.80;;;1.60;;
32639;SDS011;19049;52.524;11.468;2023-08-30T09:06:21;2.40;;;1.83;;
32639;SDS011;19049;52.524;11.468;2023-08-30T09:08:50;1.60;;;1.50;;
32639;SDS011;19049;52.524;11.468;2023-08-30T09:11:16;2.23;;;2.03;;
32639;SDS011;19049;52.524;11.468;2023-08-30T09:13:42;1.63;;;1.50;;
32639;SDS011;19049;52.524;11.468;2023-08-30T09:16:12;1.97;;;1.73;;
32639;SDS011;19049;52.524;11.468;2023-08-30T09:18:39;2.20;;;1.63;;
32639;SDS011;19049;52.524;11.468;2023-08-30T09:21:06;1.60;;;1.50;;
32639;SDS011;19049;52.524;11.468;2023-08-30T09:23:32;2.27;;;1.50;;
32639;SDS011;19049;52.524;11.468;2023-08-30T09:25:59;1.80;;;1.60;;
32639;SDS011;19049;52.524;11.468;2023-08-30T09:28:25;2.10;;;2.00;;
32639;SDS011;19049;52.524;11.468;2023-08-30T09:30:54;1.90;;;1.63;;
32639;SDS011;19049;52.524;11.468;2023-08-30T09:33:22;2.40;;;2.20;;
32639;SDS011;19049;52.524;11.468;2023-08-30T09:35:54;1.70;;;1.60;;
32639;SDS011;19049;52.524;11.468;2023-08-30T09:38:20;2.77;;;1.63;;
32639;SDS011;19049;52.524;11.468;2023-08-30T09:40:46;1.60;;;1.50;;
32639;SDS011;19049;52.524;11.468;2023-08-30T09:43:12;2.43;;;1.50;;
32639;SDS011;19049;52.524;11.468;2023-08-30T09:45:38;1.30;;;1.20;;
32639;SDS011;19049;52.524;11.468;2023-08-30T09:48:07;1.13;;;1.03;;
32639;SDS011;19049;52.524;11.468;2023-08-30T09:50:34;1.20;;;1.00;;
32639;SDS011;19049;52.524;11.468;2023-08-30T09:53:07;1.23;;;1.13;;
32639;SDS011;19049;52.524;11.468;2023-08-30T09:55:34;2.10;;;1.10;;
32639;SDS011;19049;52.524;11.468;2023-08-30T09:58:02;1.30;;;1.20;;
32639;SDS011;19049;52.524;11.468;2023-08-30T10:00:29;1.23;;;0.87;;
32639;SDS011;19049;52.524;11.468;2023-08-30T10:03:01;0.80;;;0.80;;
32639;SDS011;19049;52.524;11.468;2023-08-30T10:05:28;1.40;;;1.17;;
32639;SDS011;19049;52.524;11.468;2023-08-30T10:07:54;1.40;;;1.10;;
32639;SDS011;19049;52.524;11.468;2023-08-30T10:10:22;1.00;;;0.90;;
32639;SDS011;19049;52.524;11.468;2023-08-30T10:12:48;0.90;;;0.80;;
32639;SDS011;19049;52.524;11.468;2023-08-30T10:15:15;0.93;;;0.80;;
32639;SDS011;19049;52.524;11.468;2023-08-30T10:17:41;2.23;;;0.87;;
32639;SDS011;19049;52.524;11.468;2023-08-30T10:20:10;1.00;;;1.00;;
32639;SDS011;19049;52.524;11.468;2023-08-30T10:22:37;1.40;;;0.90;;
32639;SDS011;19049;52.524;11.468;2023-08-30T10:25:15;1.47;;;1.00;;
32639;SDS011;19049;52.524;11.468;2023-08-30T10:27:46;1.27;;;1.17;;
32639;SDS011;19049;52.524;11.468;2023-08-30T10:30:13;1.10;;;1.00;;
32639;SDS011;19049;52.524;11.468;2023-08-30T10:32:41;1.20;;;1.10;;
32639;SDS011;19049;52.524;11.468;2023-08-30T10:35:10;1.30;;;1.20;;
32639;SDS011;19049;52.524;11.468;2023-08-30T10:37:37;1.20;;;1.10;;
32639;SDS011;19049;52.524;11.468;2023-08-30T10:40:03;0.90;;;0.90;;
32639;SDS011;19049;52.524;11.468;2023-08-30T10:42:31;1.10;;;1.00;;
32639;SDS011;19049;52.524;11.468;2023-08-30T10:45:01;2.60;;;1.10;;
32639;SDS011;19049;52.524;11.468;2023-08-30T10:47:34;1.53;;;1.43;;
32639;SDS011;19049;52.524;11.468;2023-08-30T10:50:09;1.10;;;1.00;;
32639;SDS011;19049;52.524;11.468;2023-08-30T10:52:37;1.27;;;1.10;;
32639;SDS011;19049;52.524;11.468;2023-08-30T10:55:14;0.90;;;0.90;;
32639;SDS011;19049;52.524;11.468;2023-08-30T10:57:44;0.73;;;0.73;;
32639;SDS011;19049;52.524;11.468;2023-08-30T11:00:22;1.17;;;1.07;;
32639;SDS011;19049;52.524;11.468;2023-08-30T11:02:49;1.20;;;1.10;;
32639;SDS011;19049;52.524;11.468;2023-08-30T11:05:17;1.57;;;1.07;;
32639;SDS011;19049;52.524;11.468;2023-08-30T11:07:50;2.20;;;1.87;;
32639;SDS011;19049;52.524;11.468;2023-08-30T11:10:16;1.50;;;1.40;;
32639;SDS011;19049;52.524;11.468;2023-08-30T11:12:43;3.00;;;1.60;;
32639;SDS011;19049;52.524;11.468;2023-08-30T11:15:10;1.83;;;1.30;;
32639;SDS011;19049;52.524;11.468;2023-08-30T11:17:39;2.57;;;1.40;;
32639;SDS011;19049;52.524;11.468;2023-08-30T11:22:36;2.27;;;1.70;;
32639;SDS011;19049;52.524;11.468;2023-08-30T11:25:03;1.77;;;1.57;;
32639;SDS011;19049;52.524;11.468;2023-08-30T11:27:29;1.70;;;1.60;;
32639;SDS011;19049;52.524;11.468;2023-08-30T11:29:58;2.20;;;1.40;;
32639;SDS011;19049;52.524;11.468;2023-08-30T11:32:39;1.23;;;1.13;;
32639;SDS011;19049;52.524;11.468;2023-08-30T11:35:07;1.83;;;1.60;;
32639;SDS011;19049;52.524;11.468;2023-08-30T11:37:34;1.77;;;1.33;;
32639;SDS011;19049;52.524;11.468;2023-08-30T11:40:03;2.17;;;1.30;;
32639;SDS011;19049;52.524;11.468;2023-08-30T11:42:31;1.40;;;1.23;;
32639;SDS011;19049;52.524;11.468;2023-08-30T11:44:57;1.30;;;1.20;;
32639;SDS011;19049;52.524;11.468;2023-08-30T11:47:24;1.00;;;1.00;;
32639;SDS011;19049;52.524;11.468;2023-08-30T11:49:54;1.37;;;1.27;;
32639;SDS011;19049;52.524;11.468;2023-08-30T11:52:21;2.23;;;1.33;;
32639;SDS011;19049;52.524;11.468;2023-08-30T11:54:48;1.40;;;1.30;;
32639;SDS011;19049;52.524;11.468;2023-08-30T11:57:15;1.87;;;1.53;;
32639;SDS011;19049;52.524;11.468;2023-08-30T11:59:41;1.37;;;1.10;;
32639;SDS011;19049;52.524;11.468;2023-08-30T12:02:07;1.50;;;1.20;;
32639;SDS011;19049;52.524;11.468;2023-08-30T12:04:46;1.40;;;1.30;;
32639;SDS011;19049;52.524;11.468;2023-08-30T12:07:22;1.17;;;1.10;;
32639;SDS011;19049;52.524;11.468;2023-08-30T12:09:48;1.57;;;1.40;;
32639;SDS011;19049;52.524;11.468;2023-08-30T12:12:14;1.37;;;1.27;;
32639;SDS011;19049;52.524;11.468;2023-08-30T12:14:40;1.77;;;1.57;;
32639;SDS011;19049;52.524;11.468;2023-08-30T12:17:06;3.90;;;1.40;;
32639;SDS011;19049;52.524;11.468;2023-08-30T12:19:33;1.40;;;1.20;;
32639;SDS011;19049;52.524;11.468;2023-08-30T12:22:05;2.60;;;1.67;;
32639;SDS011;19049;52.524;11.468;2023-08-30T12:24:42;1.90;;;1.10;;
32639;SDS011;19049;52.524;11.468;2023-08-30T12:27:11;1.40;;;1.30;;
32639;SDS011;19049;52.524;11.468;2023-08-30T12:29:37;1.40;;;1.30;;
32639;SDS011;19049;52.524;11.468;2023-08-30T12:32:03;1.17;;;1.07;;
32639;SDS011;19049;52.524;11.468;2023-08-30T12:34:29;1.03;;;0.90;;
32639;SDS011;19049;52.524;11.468;2023-08-30T12:36:55;0.93;;;0.93;;
32639;SDS011;19049;52.524;11.468;2023-08-30T12:39:21;0.77;;;0.73;;
32639;SDS011;19049;52.524;11.468;2023-08-30T12:41:47;1.37;;;0.90;;
32639;SDS011;19049;52.524;11.468;2023-08-30T12:44:12;1.17;;;0.90;;
32639;SDS011;19049;52.524;11.468;2023-08-30T12:46:38;1.70;;;0.70;;
32639;SDS011;19049;52.524;11.468;2023-08-30T12:49:04;0.70;;;0.60;;
32639;SDS011;19049;52.524;11.468;2023-08-30T12:51:30;2.10;;;1.00;;
32639;SDS011;19049;52.524;11.468;2023-08-30T12:53:56;0.80;;;0.80;;
32639;SDS011;19049;52.524;11.468;2023-08-30T12:56:22;2.07;;;1.10;;
32639;SDS011;19049;52.524;11.468;2023-08-30T12:58:47;0.80;;;0.80;;
32639;SDS011;19049;52.524;11.468;2023-08-30T13:01:13;0.80;;;0.80;;
32639;SDS011;19049;52.524;11.468;2023-08-30T13:03:39;1.07;;;0.70;;
32639;SDS011;19049;52.524;11.468;2023-08-30T13:06:05;0.80;;;0.80;;
32639;SDS011;19049;52.524;11.468;2023-08-30T13:08:31;1.50;;;0.93;;
32639;SDS011;19049;52.524;11.468;2023-08-30T13:10:59;0.80;;;0.80;;
32639;SDS011;19049;52.524;11.468;2023-08-30T13:13:25;0.80;;;0.80;;
32639;SDS011;19049;52.524;11.468;2023-08-30T13:15:51;0.80;;;0.80;;
32639;SDS011;19049;52.524;11.468;2023-08-30T13:18:17;0.77;;;0.77;;
32639;SDS011;19049;52.524;11.468;2023-08-30T13:20:43;5.00;;;0.80;;
32639;SDS011;19049;52.524;11.468;2023-08-30T13:23:09;1.70;;;0.63;;
32639;SDS011;19049;52.524;11.468;2023-08-30T13:25:39;1.37;;;0.90;;
32639;SDS011;19049;52.524;11.468;2023-08-30T13:28:05;0.80;;;0.73;;
32639;SDS011;19049;52.524;11.468;2023-08-30T13:30:31;0.80;;;0.80;;
32639;SDS011;19049;52.524;11.468;2023-08-30T13:32:56;0.83;;;0.70;;
32639;SDS011;19049;52.524;11.468;2023-08-30T13:35:22;0.90;;;0.80;;
32639;SDS011;19049;52.524;11.468;2023-08-30T13:37:48;0.93;;;0.87;;
32639;SDS011;19049;52.524;11.468;2023-08-30T13:40:15;0.87;;;0.70;;
32639;SDS011;19049;52.524;11.468;2023-08-30T13:42:40;1.03;;;0.80;;
32639;SDS011;19049;52.524;11.468;2023-08-30T13:45:07;0.70;;;0.70;;
32639;SDS011;19049;52.524;11.468;2023-08-30T13:47:34;1.03;;;0.70;;
32639;SDS011;19049;52.524;11.468;2023-08-30T13:50:00;0.60;;;0.60;;
32639;SDS011;19049;52.524;11.468;2023-08-30T13:52:26;0.70;;;0.70;;
32639;SDS011;19049;52.524;11.468;2023-08-30T13:54:55;1.43;;;0.80;;
32639;SDS011;19049;52.524;11.468;2023-08-30T13:57:21;0.70;;;0.70;;
32639;SDS011;19049;52.524;11.468;2023-08-30T13:59:47;0.60;;;0.60;;
32639;SDS011;19049;52.524;11.468;2023-08-30T14:02:13;0.93;;;0.80;;
32639;SDS011;19049;52.524;11.468;2023-08-30T14:04:39;3.67;;;0.63;;
32639;SDS011;19049;52.524;11.468;2023-08-30T14:07:05;3.03;;;0.73;;
32639;SDS011;19049;52.524;11.468;2023-08-30T14:09:30;0.60;;;0.60;;
32639;SDS011;19049;52.524;11.468;2023-08-30T14:11:56;0.67;;;0.67;;
32639;SDS011;19049;52.524;11.468;2023-08-30T14:14:22;0.93;;;0.83;;
32639;SDS011;19049;52.524;11.468;2023-08-30T14:16:48;0.80;;;0.80;;
32639;SDS011;19049;52.524;11.468;2023-08-30T14:19:14;1.27;;;0.90;;
32639;SDS011;19049;52.524;11.468;2023-08-30T14:21:40;0.77;;;0.77;;
32639;SDS011;19049;52.524;11.468;2023-08-30T14:24:06;0.60;;;0.60;;
32639;SDS011;19049;52.524;11.468;2023-08-30T14:26:32;0.70;;;0.70;;
32639;SDS011;19049;52.524;11.468;2023-08-30T14:28:58;5.00;;;0.80;;
32639;SDS011;19049;52.524;11.468;2023-08-30T14:31:24;0.93;;;0.80;;
32639;SDS011;19049;52.524;11.468;2023-08-30T14:33:53;0.60;;;0.60;;
32639;SDS011;19049;52.524;11.468;2023-08-30T14:36:20;0.87;;;0.80;;
32639;SDS011;19049;52.524;11.468;2023-08-30T14:38:46;0.80;;;0.80;;
32639;SDS011;19049;52.524;11.468;2023-08-30T14:41:11;0.70;;;0.70;;